Bergara, Spain
Current Conditions -  °F | °C
As of 5:30 AM on Tuesday 21 Oct 2014 (Local Time) from LEVT Reporting Station
Clear Clear  
Wind Chill:   Ceiling: Unl
Heat Index:   Visibility: 6mi
Dew Point:   Wind: 0mph
Humidity: 93%   Direction: NA
Pressure: 30.24"   Gusts: NA
Location:  43.12°N, 2.42°W
Report Text: LEVT 210330Z 00000KT CAVOK 09/08 Q1024
Loading
Personal Weather Stations






























Interactive Weather Map
Tropical Storm Tracking
New forecast layout! Learn more

10-Day Weather Forecast

Advertisements
Track Severe Weather on mobile